sensor_id;sensor_type;location;lat;lon;timestamp;temperature;humidity
51661;DHT22;37741;49.748;8.490;2022-09-13T00:00:07;20.30;64.90
51661;DHT22;37741;49.748;8.490;2022-09-13T00:02:32;20.20;64.80
51661;DHT22;37741;49.748;8.490;2022-09-13T00:04:58;20.20;64.90
51661;DHT22;37741;49.748;8.490;2022-09-13T00:07:24;20.10;64.90
51661;DHT22;37741;49.748;8.490;2022-09-13T00:09:49;20.10;64.70
51661;DHT22;37741;49.748;8.490;2022-09-13T00:12:15;20.10;64.80
51661;DHT22;37741;49.748;8.490;2022-09-13T00:14:40;20.10;64.90
51661;DHT22;37741;49.748;8.490;2022-09-13T00:17:06;20.00;64.90
51661;DHT22;37741;49.748;8.490;2022-09-13T00:19:32;20.00;65.00
51661;DHT22;37741;49.748;8.490;2022-09-13T00:21:58;20.00;65.00
51661;DHT22;37741;49.748;8.490;2022-09-13T00:24:23;19.90;65.00
51661;DHT22;37741;49.748;8.490;2022-09-13T00:26:49;19.90;65.20
51661;DHT22;37741;49.748;8.490;2022-09-13T00:29:14;19.90;65.20
51661;DHT22;37741;49.748;8.490;2022-09-13T00:31:40;19.80;65.30
51661;DHT22;37741;49.748;8.490;2022-09-13T00:34:06;19.80;65.30
51661;DHT22;37741;49.748;8.490;2022-09-13T00:36:31;19.80;65.50
51661;DHT22;37741;49.748;8.490;2022-09-13T00:38:58;19.70;65.50
51661;DHT22;37741;49.748;8.490;2022-09-13T00:41:24;19.70;65.60
51661;DHT22;37741;49.748;8.490;2022-09-13T00:43:52;19.70;65.60
51661;DHT22;37741;49.748;8.490;2022-09-13T00:48:45;19.60;65.60
51661;DHT22;37741;49.748;8.490;2022-09-13T00:51:12;19.60;65.70
51661;DHT22;37741;49.748;8.490;2022-09-13T00:53:42;19.60;65.80
51661;DHT22;37741;49.748;8.490;2022-09-13T00:56:09;19.50;65.80
51661;DHT22;37741;49.748;8.490;2022-09-13T00:58:46;19.50;65.90
51661;DHT22;37741;49.748;8.490;2022-09-13T01:01:13;19.50;65.90
51661;DHT22;37741;49.748;8.490;2022-09-13T01:03:41;19.50;65.90
51661;DHT22;37741;49.748;8.490;2022-09-13T01:06:10;19.50;66.00
51661;DHT22;37741;49.748;8.490;2022-09-13T01:08:39;19.40;66.00
51661;DHT22;37741;49.748;8.490;2022-09-13T01:11:10;19.40;66.10
51661;DHT22;37741;49.748;8.490;2022-09-13T01:13:38;19.40;66.10
51661;DHT22;37741;49.748;8.490;2022-09-13T01:16:04;19.40;66.20
51661;DHT22;37741;49.748;8.490;2022-09-13T01:18:30;19.30;66.20
51661;DHT22;37741;49.748;8.490;2022-09-13T01:31:39;19.20;66.30
51661;DHT22;37741;49.748;8.490;2022-09-13T01:36:53;19.10;66.40
51661;DHT22;37741;49.748;8.490;2022-09-13T01:39:32;19.10;66.30
51661;DHT22;37741;49.748;8.490;2022-09-13T01:42:14;19.10;66.50
51661;DHT22;37741;49.748;8.490;2022-09-13T01:52:54;19.00;66.70
51661;DHT22;37741;49.748;8.490;2022-09-13T01:55:39;19.00;66.80
51661;DHT22;37741;49.748;8.490;2022-09-13T01:58:20;19.00;66.80
51661;DHT22;37741;49.748;8.490;2022-09-13T02:01:10;18.90;66.90
51661;DHT22;37741;49.748;8.490;2022-09-13T02:06:14;18.90;67.00
51661;DHT22;37741;49.748;8.490;2022-09-13T02:08:56;18.90;67.10
51661;DHT22;37741;49.748;8.490;2022-09-13T02:11:25;18.80;67.10
51661;DHT22;37741;49.748;8.490;2022-09-13T02:13:59;18.80;67.20
51661;DHT22;37741;49.748;8.490;2022-09-13T02:16:34;18.80;67.20
51661;DHT22;37741;49.748;8.490;2022-09-13T02:19:07;18.80;67.20
51661;DHT22;37741;49.748;8.490;2022-09-13T02:21:37;18.80;67.40
51661;DHT22;37741;49.748;8.490;2022-09-13T02:24:12;18.70;67.30
51661;DHT22;37741;49.748;8.490;2022-09-13T02:26:40;18.70;67.50
51661;DHT22;37741;49.748;8.490;2022-09-13T02:29:13;18.70;67.60
51661;DHT22;37741;49.748;8.490;2022-09-13T02:31:55;18.70;67.70
51661;DHT22;37741;49.748;8.490;2022-09-13T02:34:29;18.60;67.70
51661;DHT22;37741;49.748;8.490;2022-09-13T02:36:56;18.60;67.80
51661;DHT22;37741;49.748;8.490;2022-09-13T02:39:24;18.60;67.80
51661;DHT22;37741;49.748;8.490;2022-09-13T02:42:14;18.60;68.00
51661;DHT22;37741;49.748;8.490;2022-09-13T02:44:45;18.60;68.10
51661;DHT22;37741;49.748;8.490;2022-09-13T02:55:12;18.50;68.60
51661;DHT22;37741;49.748;8.490;2022-09-13T02:58:05;18.50;68.60
51661;DHT22;37741;49.748;8.490;2022-09-13T03:00:33;18.50;68.60
51661;DHT22;37741;49.748;8.490;2022-09-13T03:03:03;18.50;68.60
51661;DHT22;37741;49.748;8.490;2022-09-13T03:05:30;18.50;68.50
51661;DHT22;37741;49.748;8.490;2022-09-13T03:07:56;18.50;68.40
51661;DHT22;37741;49.748;8.490;2022-09-13T03:10:23;18.50;68.30
51661;DHT22;37741;49.748;8.490;2022-09-13T03:18:57;18.50;68.20
51661;DHT22;37741;49.748;8.490;2022-09-13T03:30:11;18.40;67.90
51661;DHT22;37741;49.748;8.490;2022-09-13T03:32:50;18.40;67.90
51661;DHT22;37741;49.748;8.490;2022-09-13T03:35:27;18.40;67.90
51661;DHT22;37741;49.748;8.490;2022-09-13T03:38:12;18.40;67.90
51661;DHT22;37741;49.748;8.490;2022-09-13T03:40:52;18.40;68.00
51661;DHT22;37741;49.748;8.490;2022-09-13T03:43:41;18.40;68.00
51661;DHT22;37741;49.748;8.490;2022-09-13T03:46:14;18.30;68.00
51661;DHT22;37741;49.748;8.490;2022-09-13T03:48:43;18.30;68.00
51661;DHT22;37741;49.748;8.490;2022-09-13T03:51:09;18.30;68.10
51661;DHT22;37741;49.748;8.490;2022-09-13T03:53:41;18.30;68.10
51661;DHT22;37741;49.748;8.490;2022-09-13T03:56:14;18.30;68.10
51661;DHT22;37741;49.748;8.490;2022-09-13T03:58:40;18.30;68.10
51661;DHT22;37741;49.748;8.490;2022-09-13T04:01:06;18.20;68.10
51661;DHT22;37741;49.748;8.490;2022-09-13T04:03:32;18.20;68.20
51661;DHT22;37741;49.748;8.490;2022-09-13T04:05:58;18.10;68.20
51661;DHT22;37741;49.748;8.490;2022-09-13T04:08:23;18.10;68.40
51661;DHT22;37741;49.748;8.490;2022-09-13T04:10:49;18.10;68.40
51661;DHT22;37741;49.748;8.490;2022-09-13T04:13:16;18.10;68.50
51661;DHT22;37741;49.748;8.490;2022-09-13T04:15:42;18.00;68.60
51661;DHT22;37741;49.748;8.490;2022-09-13T04:18:08;18.00;68.70
51661;DHT22;37741;49.748;8.490;2022-09-13T04:20:35;18.00;68.80
51661;DHT22;37741;49.748;8.490;2022-09-13T04:23:01;17.90;68.80
51661;DHT22;37741;49.748;8.490;2022-09-13T04:25:26;17.90;69.00
51661;DHT22;37741;49.748;8.490;2022-09-13T04:27:56;17.90;69.00
51661;DHT22;37741;49.748;8.490;2022-09-13T04:30:24;17.90;69.10
51661;DHT22;37741;49.748;8.490;2022-09-13T04:32:50;17.80;69.30
51661;DHT22;37741;49.748;8.490;2022-09-13T04:35:15;17.80;69.50
51661;DHT22;37741;49.748;8.490;2022-09-13T04:37:44;17.80;69.60
51661;DHT22;37741;49.748;8.490;2022-09-13T04:40:10;17.80;69.50
51661;DHT22;37741;49.748;8.490;2022-09-13T04:42:36;17.80;69.60
51661;DHT22;37741;49.748;8.490;2022-09-13T04:45:02;17.80;69.70
51661;DHT22;37741;49.748;8.490;2022-09-13T04:47:27;17.80;69.80
51661;DHT22;37741;49.748;8.490;2022-09-13T04:49:53;17.70;69.70
51661;DHT22;37741;49.748;8.490;2022-09-13T04:52:19;17.70;69.70
51661;DHT22;37741;49.748;8.490;2022-09-13T04:54:45;17.70;69.80
51661;DHT22;37741;49.748;8.490;2022-09-13T04:57:13;17.70;69.90
51661;DHT22;37741;49.748;8.490;2022-09-13T04:59:39;17.70;69.90
51661;DHT22;37741;49.748;8.490;2022-09-13T05:02:04;17.60;69.90
51661;DHT22;37741;49.748;8.490;2022-09-13T05:04:30;17.60;69.90
51661;DHT22;37741;49.748;8.490;2022-09-13T05:06:55;17.60;70.00
51661;DHT22;37741;49.748;8.490;2022-09-13T05:09:23;17.60;70.00
51661;DHT22;37741;49.748;8.490;2022-09-13T05:11:49;17.60;70.10
51661;DHT22;37741;49.748;8.490;2022-09-13T05:14:14;17.60;70.10
51661;DHT22;37741;49.748;8.490;2022-09-13T05:16:40;17.60;70.10
51661;DHT22;37741;49.748;8.490;2022-09-13T05:19:05;17.60;70.30
51661;DHT22;37741;49.748;8.490;2022-09-13T05:21:31;17.60;70.30
51661;DHT22;37741;49.748;8.490;2022-09-13T05:23:57;17.50;70.30
51661;DHT22;37741;49.748;8.490;2022-09-13T05:26:25;17.50;70.30
51661;DHT22;37741;49.748;8.490;2022-09-13T05:28:51;17.50;70.40
51661;DHT22;37741;49.748;8.490;2022-09-13T05:31:19;17.50;70.50
51661;DHT22;37741;49.748;8.490;2022-09-13T05:33:47;17.50;70.50
51661;DHT22;37741;49.748;8.490;2022-09-13T05:36:16;17.50;70.70
51661;DHT22;37741;49.748;8.490;2022-09-13T05:38:42;17.50;70.70
51661;DHT22;37741;49.748;8.490;2022-09-13T05:41:08;17.40;70.60
51661;DHT22;37741;49.748;8.490;2022-09-13T05:43:34;17.40;70.70
51661;DHT22;37741;49.748;8.490;2022-09-13T05:46:05;17.40;70.60
51661;DHT22;37741;49.748;8.490;2022-09-13T05:48:33;17.40;70.70
51661;DHT22;37741;49.748;8.490;2022-09-13T05:51:18;17.40;70.80
51661;DHT22;37741;49.748;8.490;2022-09-13T05:53:49;17.40;70.80
51661;DHT22;37741;49.748;8.490;2022-09-13T05:56:19;17.40;70.90
51661;DHT22;37741;49.748;8.490;2022-09-13T05:58:46;17.40;70.90
51661;DHT22;37741;49.748;8.490;2022-09-13T06:01:14;17.40;70.90
51661;DHT22;37741;49.748;8.490;2022-09-13T06:03:40;17.30;71.00
51661;DHT22;37741;49.748;8.490;2022-09-13T06:06:06;17.40;71.10
51661;DHT22;37741;49.748;8.490;2022-09-13T06:08:33;17.30;71.10
51661;DHT22;37741;49.748;8.490;2022-09-13T06:11:05;17.30;71.10
51661;DHT22;37741;49.748;8.490;2022-09-13T06:13:31;17.30;71.10
51661;DHT22;37741;49.748;8.490;2022-09-13T06:15:59;17.30;71.10
51661;DHT22;37741;49.748;8.490;2022-09-13T06:18:26;17.30;71.10
51661;DHT22;37741;49.748;8.490;2022-09-13T06:20:57;17.30;71.30
51661;DHT22;37741;49.748;8.490;2022-09-13T06:23:24;17.30;71.20
51661;DHT22;37741;49.748;8.490;2022-09-13T06:25:50;17.30;71.40
51661;DHT22;37741;49.748;8.490;2022-09-13T06:28:23;17.30;71.40
51661;DHT22;37741;49.748;8.490;2022-09-13T06:30:48;17.30;71.60
51661;DHT22;37741;49.748;8.490;2022-09-13T06:33:14;17.30;71.50
51661;DHT22;37741;49.748;8.490;2022-09-13T06:35:39;17.30;71.70
51661;DHT22;37741;49.748;8.490;2022-09-13T06:38:05;17.20;71.50
51661;DHT22;37741;49.748;8.490;2022-09-13T06:40:31;17.30;71.70
51661;DHT22;37741;49.748;8.490;2022-09-13T06:42:56;17.20;71.70
51661;DHT22;37741;49.748;8.490;2022-09-13T06:45:22;17.30;71.70
51661;DHT22;37741;49.748;8.490;2022-09-13T06:47:48;17.30;71.90
51661;DHT22;37741;49.748;8.490;2022-09-13T06:50:13;17.20;71.80
51661;DHT22;37741;49.748;8.490;2022-09-13T06:52:39;17.30;71.80
51661;DHT22;37741;49.748;8.490;2022-09-13T06:55:05;17.30;71.90
51661;DHT22;37741;49.748;8.490;2022-09-13T06:57:30;17.30;72.00
51661;DHT22;37741;49.748;8.490;2022-09-13T06:59:56;17.30;71.90
51661;DHT22;37741;49.748;8.490;2022-09-13T07:02:22;17.40;71.90
51661;DHT22;37741;49.748;8.490;2022-09-13T07:04:49;17.40;71.90
51661;DHT22;37741;49.748;8.490;2022-09-13T07:07:14;17.40;71.80
51661;DHT22;37741;49.748;8.490;2022-09-13T07:09:40;17.40;71.80
51661;DHT22;37741;49.748;8.490;2022-09-13T07:12:07;17.40;71.70
51661;DHT22;37741;49.748;8.490;2022-09-13T07:14:33;17.50;71.80
51661;DHT22;37741;49.748;8.490;2022-09-13T07:16:58;17.50;71.70
51661;DHT22;37741;49.748;8.490;2022-09-13T07:19:27;17.50;71.70
51661;DHT22;37741;49.748;8.490;2022-09-13T07:21:54;17.50;71.60
51661;DHT22;37741;49.748;8.490;2022-09-13T07:24:20;17.50;71.60
51661;DHT22;37741;49.748;8.490;2022-09-13T07:26:47;17.50;71.50
51661;DHT22;37741;49.748;8.490;2022-09-13T07:29:15;17.50;71.50
51661;DHT22;37741;49.748;8.490;2022-09-13T07:31:45;17.60;71.60
51661;DHT22;37741;49.748;8.490;2022-09-13T07:34:13;17.50;71.60
51661;DHT22;37741;49.748;8.490;2022-09-13T07:36:40;17.60;71.70
51661;DHT22;37741;49.748;8.490;2022-09-13T07:39:06;17.60;71.60
51661;DHT22;37741;49.748;8.490;2022-09-13T07:41:33;17.60;72.20
51661;DHT22;37741;49.748;8.490;2022-09-13T07:43:59;17.60;71.80
51661;DHT22;37741;49.748;8.490;2022-09-13T07:46:27;17.60;71.60
51661;DHT22;37741;49.748;8.490;2022-09-13T07:48:56;17.60;71.50
51661;DHT22;37741;49.748;8.490;2022-09-13T07:51:24;17.60;71.50
51661;DHT22;37741;49.748;8.490;2022-09-13T07:53:54;17.60;71.50
51661;DHT22;37741;49.748;8.490;2022-09-13T07:56:29;17.60;71.70
51661;DHT22;37741;49.748;8.490;2022-09-13T07:58:57;17.70;71.70
51661;DHT22;37741;49.748;8.490;2022-09-13T08:01:24;17.60;71.60
51661;DHT22;37741;49.748;8.490;2022-09-13T08:03:52;17.60;71.80
51661;DHT22;37741;49.748;8.490;2022-09-13T08:06:19;17.70;72.00
51661;DHT22;37741;49.748;8.490;2022-09-13T08:08:44;17.70;72.10
51661;DHT22;37741;49.748;8.490;2022-09-13T08:11:18;17.60;72.50
51661;DHT22;37741;49.748;8.490;2022-09-13T08:13:48;17.60;72.40
51661;DHT22;37741;49.748;8.490;2022-09-13T08:16:17;17.70;72.90
51661;DHT22;37741;49.748;8.490;2022-09-13T08:18:48;17.70;73.20
51661;DHT22;37741;49.748;8.490;2022-09-13T08:21:14;17.70;72.90
51661;DHT22;37741;49.748;8.490;2022-09-13T08:23:43;17.70;72.70
51661;DHT22;37741;49.748;8.490;2022-09-13T08:26:09;17.70;72.60
51661;DHT22;37741;49.748;8.490;2022-09-13T08:28:39;17.70;72.90
51661;DHT22;37741;49.748;8.490;2022-09-13T08:31:10;17.70;72.70
51661;DHT22;37741;49.748;8.490;2022-09-13T08:33:36;17.70;72.80
51661;DHT22;37741;49.748;8.490;2022-09-13T08:36:03;17.70;72.80
51661;DHT22;37741;49.748;8.490;2022-09-13T08:38:29;17.70;72.80
51661;DHT22;37741;49.748;8.490;2022-09-13T08:41:01;17.70;72.90
51661;DHT22;37741;49.748;8.490;2022-09-13T08:43:38;17.80;73.00
51661;DHT22;37741;49.748;8.490;2022-09-13T08:46:17;17.80;72.80
51661;DHT22;37741;49.748;8.490;2022-09-13T08:48:45;17.80;72.80
51661;DHT22;37741;49.748;8.490;2022-09-13T08:51:31;17.80;72.70
51661;DHT22;37741;49.748;8.490;2022-09-13T08:53:57;17.80;72.70
51661;DHT22;37741;49.748;8.490;2022-09-13T08:56:58;17.80;73.10
51661;DHT22;37741;49.748;8.490;2022-09-13T09:02:37;17.80;73.00
51661;DHT22;37741;49.748;8.490;2022-09-13T09:05:25;17.80;73.00
51661;DHT22;37741;49.748;8.490;2022-09-13T09:07:54;17.80;73.10
51661;DHT22;37741;49.748;8.490;2022-09-13T09:10:32;17.80;73.00
51661;DHT22;37741;49.748;8.490;2022-09-13T09:13:08;17.80;73.00
51661;DHT22;37741;49.748;8.490;2022-09-13T09:15:47;17.80;73.10
51661;DHT22;37741;49.748;8.490;2022-09-13T09:18:27;17.80;73.30
51661;DHT22;37741;49.748;8.490;2022-09-13T09:20:58;17.90;73.20
51661;DHT22;37741;49.748;8.490;2022-09-13T09:29:30;17.80;73.00
51661;DHT22;37741;49.748;8.490;2022-09-13T09:37:23;17.90;73.00
51661;DHT22;37741;49.748;8.490;2022-09-13T09:39:52;17.90;73.10
51661;DHT22;37741;49.748;8.490;2022-09-13T09:42:24;18.00;73.10
51661;DHT22;37741;49.748;8.490;2022-09-13T09:44:52;18.00;73.80
51661;DHT22;37741;49.748;8.490;2022-09-13T09:47:25;18.00;73.30
51661;DHT22;37741;49.748;8.490;2022-09-13T09:50:02;18.00;73.00
51661;DHT22;37741;49.748;8.490;2022-09-13T09:58:04;18.10;73.30
51661;DHT22;37741;49.748;8.490;2022-09-13T10:00:56;18.10;73.00
51661;DHT22;37741;49.748;8.490;2022-09-13T10:03:27;18.20;73.10
51661;DHT22;37741;49.748;8.490;2022-09-13T10:06:14;18.20;73.00
51661;DHT22;37741;49.748;8.490;2022-09-13T10:09:05;18.20;72.70
51661;DHT22;37741;49.748;8.490;2022-09-13T10:11:49;18.30;72.80
51661;DHT22;37741;49.748;8.490;2022-09-13T10:14:44;18.30;73.20
51661;DHT22;37741;49.748;8.490;2022-09-13T10:20:17;18.40;73.40
51661;DHT22;37741;49.748;8.490;2022-09-13T10:22:35;18.40;74.00
51661;DHT22;37741;49.748;8.490;2022-09-13T10:25:24;18.50;73.50
51661;DHT22;37741;49.748;8.490;2022-09-13T10:27:55;18.50;73.60
51661;DHT22;37741;49.748;8.490;2022-09-13T10:30:40;18.50;73.20
51661;DHT22;37741;49.748;8.490;2022-09-13T10:33:30;18.60;73.40
51661;DHT22;37741;49.748;8.490;2022-09-13T10:35:59;18.60;72.90
51661;DHT22;37741;49.748;8.490;2022-09-13T10:38:30;18.60;72.90
51661;DHT22;37741;49.748;8.490;2022-09-13T10:40:57;18.70;72.60
51661;DHT22;37741;49.748;8.490;2022-09-13T10:43:26;18.70;72.60
51661;DHT22;37741;49.748;8.490;2022-09-13T10:45:53;18.70;73.40
51661;DHT22;37741;49.748;8.490;2022-09-13T10:48:19;18.80;72.80
51661;DHT22;37741;49.748;8.490;2022-09-13T10:51:07;18.80;72.50
51661;DHT22;37741;49.748;8.490;2022-09-13T10:53:41;18.80;72.50
51661;DHT22;37741;49.748;8.490;2022-09-13T10:56:27;18.80;72.40
51661;DHT22;37741;49.748;8.490;2022-09-13T10:59:17;18.90;72.80
51661;DHT22;37741;49.748;8.490;2022-09-13T11:07:19;18.90;73.10
51661;DHT22;37741;49.748;8.490;2022-09-13T11:18:32;19.00;73.20
51661;DHT22;37741;49.748;8.490;2022-09-13T11:21:14;19.10;73.10
51661;DHT22;37741;49.748;8.490;2022-09-13T11:32:24;19.10;75.00
51661;DHT22;37741;49.748;8.490;2022-09-13T11:46:09;19.20;74.20
51661;DHT22;37741;49.748;8.490;2022-09-13T11:48:49;19.20;74.10
51661;DHT22;37741;49.748;8.490;2022-09-13T11:51:37;19.20;74.40
51661;DHT22;37741;49.748;8.490;2022-09-13T11:56:42;19.30;74.80
51661;DHT22;37741;49.748;8.490;2022-09-13T11:59:23;19.40;74.70
51661;DHT22;37741;49.748;8.490;2022-09-13T12:02:00;19.40;74.20
51661;DHT22;37741;49.748;8.490;2022-09-13T12:04:33;19.40;74.00
51661;DHT22;37741;49.748;8.490;2022-09-13T12:07:16;19.50;74.00
51661;DHT22;37741;49.748;8.490;2022-09-13T12:09:52;19.50;74.50
51661;DHT22;37741;49.748;8.490;2022-09-13T12:12:22;19.50;74.30
51661;DHT22;37741;49.748;8.490;2022-09-13T12:15:04;19.50;74.50
51661;DHT22;37741;49.748;8.490;2022-09-13T12:17:39;19.60;74.90
51661;DHT22;37741;49.748;8.490;2022-09-13T12:20:16;19.60;74.70
51661;DHT22;37741;49.748;8.490;2022-09-13T12:22:44;19.70;73.70
51661;DHT22;37741;49.748;8.490;2022-09-13T12:25:20;19.70;73.40
51661;DHT22;37741;49.748;8.490;2022-09-13T12:27:55;19.80;73.00
51661;DHT22;37741;49.748;8.490;2022-09-13T12:30:27;19.80;73.00
51661;DHT22;37741;49.748;8.490;2022-09-13T12:32:58;19.80;72.70
51661;DHT22;37741;49.748;8.490;2022-09-13T12:35:27;19.90;73.00
51661;DHT22;37741;49.748;8.490;2022-09-13T13:00:19;20.20;72.20
51661;DHT22;37741;49.748;8.490;2022-09-13T13:02:50;20.30;71.90
51661;DHT22;37741;49.748;8.490;2022-09-13T13:05:29;20.30;72.70
51661;DHT22;37741;49.748;8.490;2022-09-13T13:08:00;20.30;72.10
51661;DHT22;37741;49.748;8.490;2022-09-13T13:10:35;20.40;71.80
51661;DHT22;37741;49.748;8.490;2022-09-13T13:13:12;20.40;71.60
51661;DHT22;37741;49.748;8.490;2022-09-13T13:18:41;20.40;71.10
51661;DHT22;37741;49.748;8.490;2022-09-13T13:23:47;20.50;70.10
51661;DHT22;37741;49.748;8.490;2022-09-13T13:29:15;20.50;70.30
51661;DHT22;37741;49.748;8.490;2022-09-13T13:34:40;20.50;71.10
51661;DHT22;37741;49.748;8.490;2022-09-13T13:39:42;20.50;69.80
51661;DHT22;37741;49.748;8.490;2022-09-13T13:42:12;20.50;70.40
51661;DHT22;37741;49.748;8.490;2022-09-13T13:49:52;20.60;69.70
51661;DHT22;37741;49.748;8.490;2022-09-13T13:58:47;20.70;72.20
51661;DHT22;37741;49.748;8.490;2022-09-13T14:00:49;20.70;73.20
51661;DHT22;37741;49.748;8.490;2022-09-13T14:03:47;20.70;72.50
51661;DHT22;37741;49.748;8.490;2022-09-13T14:06:34;20.70;72.10
51661;DHT22;37741;49.748;8.490;2022-09-13T14:11:56;20.80;70.90
51661;DHT22;37741;49.748;8.490;2022-09-13T14:14:45;20.80;70.60
51661;DHT22;37741;49.748;8.490;2022-09-13T14:20:15;20.80;70.40
51661;DHT22;37741;49.748;8.490;2022-09-13T14:22:41;20.80;70.50
51661;DHT22;37741;49.748;8.490;2022-09-13T14:27:47;20.80;70.40
51661;DHT22;37741;49.748;8.490;2022-09-13T14:32:46;20.90;70.90
51661;DHT22;37741;49.748;8.490;2022-09-13T14:35:33;20.80;70.90
51661;DHT22;37741;49.748;8.490;2022-09-13T14:38:29;20.90;71.40
51661;DHT22;37741;49.748;8.490;2022-09-13T14:41:10;20.90;70.90
51661;DHT22;37741;49.748;8.490;2022-09-13T14:43:37;20.90;71.10
51661;DHT22;37741;49.748;8.490;2022-09-13T14:46:11;20.90;71.90
51661;DHT22;37741;49.748;8.490;2022-09-13T14:48:53;20.90;71.10
51661;DHT22;37741;49.748;8.490;2022-09-13T14:51:28;20.90;71.00
51661;DHT22;37741;49.748;8.490;2022-09-13T14:54:05;20.90;71.60
51661;DHT22;37741;49.748;8.490;2022-09-13T14:56:40;21.00;71.10
51661;DHT22;37741;49.748;8.490;2022-09-13T14:59:14;21.00;71.20
51661;DHT22;37741;49.748;8.490;2022-09-13T15:01:40;21.00;71.30
51661;DHT22;37741;49.748;8.490;2022-09-13T15:04:06;21.00;71.40
51661;DHT22;37741;49.748;8.490;2022-09-13T15:06:35;21.00;71.90
51661;DHT22;37741;49.748;8.490;2022-09-13T15:11:57;21.00;71.40
51661;DHT22;37741;49.748;8.490;2022-09-13T15:14:34;21.00;71.40
51661;DHT22;37741;49.748;8.490;2022-09-13T15:17:09;21.00;73.30
51661;DHT22;37741;49.748;8.490;2022-09-13T15:19:38;21.00;71.30
51661;DHT22;37741;49.748;8.490;2022-09-13T15:22:24;21.00;71.00
51661;DHT22;37741;49.748;8.490;2022-09-13T15:24:57;21.00;71.10
51661;DHT22;37741;49.748;8.490;2022-09-13T15:27:44;21.00;71.30
51661;DHT22;37741;49.748;8.490;2022-09-13T15:30:25;21.00;71.30
51661;DHT22;37741;49.748;8.490;2022-09-13T15:35:43;21.00;71.00
51661;DHT22;37741;49.748;8.490;2022-09-13T15:38:18;21.10;71.00
51661;DHT22;37741;49.748;8.490;2022-09-13T15:43:23;21.10;71.00
51661;DHT22;37741;49.748;8.490;2022-09-13T15:45:49;21.10;71.00
51661;DHT22;37741;49.748;8.490;2022-09-13T15:48:57;21.10;71.10
51661;DHT22;37741;49.748;8.490;2022-09-13T15:51:23;21.10;71.50
51661;DHT22;37741;49.748;8.490;2022-09-13T15:53:49;21.10;71.50
51661;DHT22;37741;49.748;8.490;2022-09-13T15:56:18;21.20;71.50
51661;DHT22;37741;49.748;8.490;2022-09-13T15:58:45;21.20;71.90
51661;DHT22;37741;49.748;8.490;2022-09-13T16:01:15;21.20;71.90
51661;DHT22;37741;49.748;8.490;2022-09-13T16:03:41;21.30;72.00
51661;DHT22;37741;49.748;8.490;2022-09-13T16:06:07;21.20;71.50
51661;DHT22;37741;49.748;8.490;2022-09-13T16:08:34;21.30;71.70
51661;DHT22;37741;49.748;8.490;2022-09-13T16:11:00;21.30;71.50
51661;DHT22;37741;49.748;8.490;2022-09-13T16:13:26;21.30;71.40
51661;DHT22;37741;49.748;8.490;2022-09-13T16:15:53;21.30;71.50
51661;DHT22;37741;49.748;8.490;2022-09-13T16:18:19;21.30;72.30
51661;DHT22;37741;49.748;8.490;2022-09-13T16:20:44;21.30;72.60
51661;DHT22;37741;49.748;8.490;2022-09-13T16:23:10;21.30;73.30
51661;DHT22;37741;49.748;8.490;2022-09-13T16:25:36;21.30;73.40
51661;DHT22;37741;49.748;8.490;2022-09-13T16:28:04;21.30;73.60
51661;DHT22;37741;49.748;8.490;2022-09-13T16:30:29;21.30;73.10
51661;DHT22;37741;49.748;8.490;2022-09-13T16:32:56;21.30;73.30
51661;DHT22;37741;49.748;8.490;2022-09-13T16:35:25;21.30;72.80
51661;DHT22;37741;49.748;8.490;2022-09-13T16:37:50;21.30;73.40
51661;DHT22;37741;49.748;8.490;2022-09-13T16:40:17;21.30;73.10
51661;DHT22;37741;49.748;8.490;2022-09-13T16:42:44;21.30;72.80
51661;DHT22;37741;49.748;8.490;2022-09-13T16:45:10;21.30;73.00
51661;DHT22;37741;49.748;8.490;2022-09-13T16:47:36;21.30;72.80
51661;DHT22;37741;49.748;8.490;2022-09-13T16:50:03;21.30;72.90
51661;DHT22;37741;49.748;8.490;2022-09-13T16:52:29;21.30;72.80
51661;DHT22;37741;49.748;8.490;2022-09-13T16:54:54;21.30;72.90
51661;DHT22;37741;49.748;8.490;2022-09-13T16:57:21;21.30;72.90
51661;DHT22;37741;49.748;8.490;2022-09-13T16:59:48;21.30;72.80
51661;DHT22;37741;49.748;8.490;2022-09-13T17:02:15;21.30;73.10
51661;DHT22;37741;49.748;8.490;2022-09-13T17:04:41;21.30;73.40
51661;DHT22;37741;49.748;8.490;2022-09-13T17:07:06;21.30;72.70
51661;DHT22;37741;49.748;8.490;2022-09-13T17:09:33;21.30;72.10
51661;DHT22;37741;49.748;8.490;2022-09-13T17:11:59;21.20;72.50
51661;DHT22;37741;49.748;8.490;2022-09-13T17:14:24;21.20;72.10
51661;DHT22;37741;49.748;8.490;2022-09-13T17:16:52;21.20;72.90
51661;DHT22;37741;49.748;8.490;2022-09-13T17:19:22;21.20;72.80
51661;DHT22;37741;49.748;8.490;2022-09-13T17:21:49;21.10;73.70
51661;DHT22;37741;49.748;8.490;2022-09-13T17:24:15;21.10;73.40
51661;DHT22;37741;49.748;8.490;2022-09-13T17:26:42;21.10;73.00
51661;DHT22;37741;49.748;8.490;2022-09-13T17:29:09;21.10;73.80
51661;DHT22;37741;49.748;8.490;2022-09-13T17:31:35;21.10;73.10
51661;DHT22;37741;49.748;8.490;2022-09-13T17:34:01;21.00;73.60
51661;DHT22;37741;49.748;8.490;2022-09-13T17:36:26;21.00;74.20
51661;DHT22;37741;49.748;8.490;2022-09-13T17:38:55;21.00;73.20
51661;DHT22;37741;49.748;8.490;2022-09-13T17:41:21;21.00;74.50
51661;DHT22;37741;49.748;8.490;2022-09-13T17:43:47;21.00;75.80
51661;DHT22;37741;49.748;8.490;2022-09-13T17:46:23;21.00;77.00
51661;DHT22;37741;49.748;8.490;2022-09-13T17:48:49;21.00;77.00
51661;DHT22;37741;49.748;8.490;2022-09-13T17:51:18;21.00;77.00
51661;DHT22;37741;49.748;8.490;2022-09-13T17:53:49;21.00;77.00
51661;DHT22;37741;49.748;8.490;2022-09-13T17:56:23;20.90;76.80
51661;DHT22;37741;49.748;8.490;2022-09-13T17:58:54;20.90;76.60
51661;DHT22;37741;49.748;8.490;2022-09-13T18:01:20;20.90;75.50
51661;DHT22;37741;49.748;8.490;2022-09-13T18:03:45;20.90;75.50
51661;DHT22;37741;49.748;8.490;2022-09-13T18:06:11;20.90;75.10
51661;DHT22;37741;49.748;8.490;2022-09-13T18:08:39;20.90;75.20
51661;DHT22;37741;49.748;8.490;2022-09-13T18:11:09;20.90;75.20
51661;DHT22;37741;49.748;8.490;2022-09-13T18:13:35;20.80;75.20
51661;DHT22;37741;49.748;8.490;2022-09-13T18:16:13;20.80;75.30
51661;DHT22;37741;49.748;8.490;2022-09-13T18:18:39;20.80;75.20
51661;DHT22;37741;49.748;8.490;2022-09-13T18:21:05;20.80;75.10
51661;DHT22;37741;49.748;8.490;2022-09-13T18:23:34;20.80;75.20
51661;DHT22;37741;49.748;8.490;2022-09-13T18:26:04;20.80;75.40
51661;DHT22;37741;49.748;8.490;2022-09-13T18:28:31;20.80;75.40
51661;DHT22;37741;49.748;8.490;2022-09-13T18:30:59;20.80;75.40
51661;DHT22;37741;49.748;8.490;2022-09-13T18:33:26;20.80;75.30
51661;DHT22;37741;49.748;8.490;2022-09-13T18:36:09;20.80;75.60
51661;DHT22;37741;49.748;8.490;2022-09-13T18:38:40;20.80;75.50
51661;DHT22;37741;49.748;8.490;2022-09-13T18:41:08;20.80;75.60
51661;DHT22;37741;49.748;8.490;2022-09-13T18:43:36;20.70;75.50
51661;DHT22;37741;49.748;8.490;2022-09-13T18:46:03;20.70;75.70